This is the latest recevied weather packets stored in our database for station/object HS5XHC-1. If no packets are shown the sender has not sent any weather packets the latest 10 day(s).
| Time | Temp. | Humidity | Pressure | Rain* | Wind** | Luminosity | Snow |
|---|---|---|---|---|---|---|---|
| 1777569787 | 27.78° C | 54% | 968 hPa | - | - | 0 W/m² | - |
| 1777569163 | 27.78° C | 54% | 969 hPa | - | - | 0 W/m² | - |
| 1777568539 | 27.78° C | 55% | 969 hPa | - | - | 0 W/m² | - |
| 1777567915 | 27.78° C | 53% | 969 hPa | - | - | 0 W/m² | - |
| 1777567291 | 27.78° C | 54% | 969 hPa | - | - | 0 W/m² | - |
| 1777566667 | 26.67° C | 57% | 969 hPa | - | - | 0 W/m² | - |
| 1777566043 | 27.78° C | 55% | 969 hPa | - | - | 0 W/m² | - |
| 1777565419 | 28.33° C | 53% | 969 hPa | - | - | 0 W/m² | - |
| 1777564795 | 28.33° C | 54% | 968 hPa | - | - | 0 W/m² | - |
| 1777564171 | 28.33° C | 54% | 968 hPa | - | - | 0 W/m² | - |
| 1777563547 | 28.33° C | 54% | 968 hPa | - | - | 0 W/m² | - |
| 1777562923 | 28.89° C | 53% | 968 hPa | - | - | 0 W/m² | - |
| 1777562299 | 28.89° C | 53% | 968 hPa | - | - | 0 W/m² | - |
| 1777561675 | 28.89° C | 52% | 968 hPa | - | - | 0 W/m² | - |
| 1777561051 | 28.89° C | 53% | 968 hPa | - | - | 0 W/m² | - |
| 1777560427 | 28.33° C | 54% | 968 hPa | - | - | 0 W/m² | - |
| 1777559803 | 27.78° C | 54% | 968 hPa | - | - | 0 W/m² | - |
| 1777559179 | 27.78° C | 54% | 968 hPa | - | - | 0 W/m² | - |
| 1777558555 | 28.33° C | 53% | 968 hPa | - | - | 0 W/m² | - |
| 1777557930 | 27.78° C | 53% | 968 hPa | - | - | 0 W/m² | - |
| 1777557307 | 27.78° C | 53% | 967 hPa | - | - | 0 W/m² | - |
| 1777556683 | 27.22° C | 54% | 967 hPa | - | - | 0 W/m² | - |
| 1777556059 | 29.44° C | 48% | 967 hPa | - | - | 0 W/m² | - |
| 1777555435 | 30° C | 46% | 967 hPa | - | - | 0 W/m² | - |
| 1777554811 | 29.44° C | 47% | 967 hPa | - | - | 0 W/m² | - |
* Rain since midnight (hover to see other rain measurements)
** Current wind speed in m/s (hover to see current wind gust speed)